sensor_id;sensor_type;location;lat;lon;timestamp;temperature;humidity
3226;DHT22;1625;49.884;8.666;2022-07-05T00:02:03;20.10;90.40
3226;DHT22;1625;49.884;8.666;2022-07-05T00:04:28;20.00;90.50
3226;DHT22;1625;49.884;8.666;2022-07-05T00:06:54;20.00;90.50
3226;DHT22;1625;49.884;8.666;2022-07-05T00:09:38;19.90;90.50
3226;DHT22;1625;49.884;8.666;2022-07-05T00:12:04;19.90;90.80
3226;DHT22;1625;49.884;8.666;2022-07-05T00:14:30;19.90;90.80
3226;DHT22;1625;49.884;8.666;2022-07-05T00:16:55;19.90;91.10
3226;DHT22;1625;49.884;8.666;2022-07-05T00:19:21;19.90;91.30
3226;DHT22;1625;49.884;8.666;2022-07-05T00:21:47;19.90;91.50
3226;DHT22;1625;49.884;8.666;2022-07-05T00:24:12;19.90;91.50
3226;DHT22;1625;49.884;8.666;2022-07-05T00:26:38;19.90;91.70
3226;DHT22;1625;49.884;8.666;2022-07-05T00:29:04;19.80;92.40
3226;DHT22;1625;49.884;8.666;2022-07-05T00:31:29;19.70;92.40
3226;DHT22;1625;49.884;8.666;2022-07-05T00:33:55;19.60;92.10
3226;DHT22;1625;49.884;8.666;2022-07-05T00:36:21;19.60;92.30
3226;DHT22;1625;49.884;8.666;2022-07-05T00:38:46;19.60;92.50
3226;DHT22;1625;49.884;8.666;2022-07-05T00:41:12;19.60;93.00
3226;DHT22;1625;49.884;8.666;2022-07-05T00:43:37;19.50;92.90
3226;DHT22;1625;49.884;8.666;2022-07-05T00:46:16;19.50;93.40
3226;DHT22;1625;49.884;8.666;2022-07-05T00:48:41;19.40;93.70
3226;DHT22;1625;49.884;8.666;2022-07-05T00:51:07;19.40;94.00
3226;DHT22;1625;49.884;8.666;2022-07-05T00:53:32;19.40;94.30
3226;DHT22;1625;49.884;8.666;2022-07-05T00:55:58;19.40;94.40
3226;DHT22;1625;49.884;8.666;2022-07-05T00:58:24;19.50;94.60
3226;DHT22;1625;49.884;8.666;2022-07-05T01:00:49;19.40;94.80
3226;DHT22;1625;49.884;8.666;2022-07-05T01:03:15;19.40;95.30
3226;DHT22;1625;49.884;8.666;2022-07-05T01:05:40;19.30;94.90
3226;DHT22;1625;49.884;8.666;2022-07-05T01:08:06;19.30;95.30
3226;DHT22;1625;49.884;8.666;2022-07-05T01:10:31;19.20;95.80
3226;DHT22;1625;49.884;8.666;2022-07-05T01:12:57;19.20;95.80
3226;DHT22;1625;49.884;8.666;2022-07-05T01:15:23;19.20;96.30
3226;DHT22;1625;49.884;8.666;2022-07-05T01:17:49;19.10;96.30
3226;DHT22;1625;49.884;8.666;2022-07-05T01:20:15;19.10;96.80
3226;DHT22;1625;49.884;8.666;2022-07-05T01:25:20;19.00;97.30
3226;DHT22;1625;49.884;8.666;2022-07-05T01:27:47;18.80;97.50
3226;DHT22;1625;49.884;8.666;2022-07-05T01:30:14;18.80;98.20
3226;DHT22;1625;49.884;8.666;2022-07-05T01:32:39;18.80;98.50
3226;DHT22;1625;49.884;8.666;2022-07-05T01:35:07;18.80;98.70
3226;DHT22;1625;49.884;8.666;2022-07-05T01:37:33;18.80;99.20
3226;DHT22;1625;49.884;8.666;2022-07-05T01:40:08;18.80;99.40
3226;DHT22;1625;49.884;8.666;2022-07-05T01:42:34;18.70;99.90
3226;DHT22;1625;49.884;8.666;2022-07-05T01:45:00;18.70;99.90
3226;DHT22;1625;49.884;8.666;2022-07-05T01:47:25;18.70;99.90
3226;DHT22;1625;49.884;8.666;2022-07-05T01:49:53;18.60;99.90
3226;DHT22;1625;49.884;8.666;2022-07-05T01:52:21;18.60;99.90
3226;DHT22;1625;49.884;8.666;2022-07-05T01:54:47;18.60;99.90
3226;DHT22;1625;49.884;8.666;2022-07-05T01:57:13;18.60;99.90
3226;DHT22;1625;49.884;8.666;2022-07-05T01:59:39;18.50;99.90
3226;DHT22;1625;49.884;8.666;2022-07-05T02:02:07;18.50;99.90
3226;DHT22;1625;49.884;8.666;2022-07-05T02:04:36;18.40;99.90
3226;DHT22;1625;49.884;8.666;2022-07-05T02:07:06;18.40;99.90
3226;DHT22;1625;49.884;8.666;2022-07-05T02:09:32;18.40;99.90
3226;DHT22;1625;49.884;8.666;2022-07-05T02:11:58;18.30;99.90
3226;DHT22;1625;49.884;8.666;2022-07-05T02:14:23;18.30;99.90
3226;DHT22;1625;49.884;8.666;2022-07-05T02:16:49;18.20;99.90
3226;DHT22;1625;49.884;8.666;2022-07-05T02:19:15;18.10;99.90
3226;DHT22;1625;49.884;8.666;2022-07-05T02:21:40;18.10;99.90
3226;DHT22;1625;49.884;8.666;2022-07-05T02:24:06;18.10;99.90
3226;DHT22;1625;49.884;8.666;2022-07-05T02:26:32;17.90;99.90
3226;DHT22;1625;49.884;8.666;2022-07-05T02:28:58;17.90;99.90
3226;DHT22;1625;49.884;8.666;2022-07-05T02:31:23;18.00;99.90
3226;DHT22;1625;49.884;8.666;2022-07-05T02:33:49;17.90;99.90
3226;DHT22;1625;49.884;8.666;2022-07-05T02:36:15;17.90;99.90
3226;DHT22;1625;49.884;8.666;2022-07-05T02:38:41;17.90;99.90
3226;DHT22;1625;49.884;8.666;2022-07-05T02:41:08;17.90;99.90
3226;DHT22;1625;49.884;8.666;2022-07-05T02:43:34;17.90;99.90
3226;DHT22;1625;49.884;8.666;2022-07-05T02:46:03;17.90;99.90
3226;DHT22;1625;49.884;8.666;2022-07-05T02:48:29;17.80;99.90
3226;DHT22;1625;49.884;8.666;2022-07-05T02:50:59;17.70;99.90
3226;DHT22;1625;49.884;8.666;2022-07-05T02:53:25;17.70;99.90
3226;DHT22;1625;49.884;8.666;2022-07-05T02:55:51;17.70;99.90
3226;DHT22;1625;49.884;8.666;2022-07-05T02:58:16;17.70;99.90
3226;DHT22;1625;49.884;8.666;2022-07-05T03:00:43;17.60;99.90
3226;DHT22;1625;49.884;8.666;2022-07-05T03:03:09;17.60;99.90
3226;DHT22;1625;49.884;8.666;2022-07-05T03:05:35;17.60;99.90
3226;DHT22;1625;49.884;8.666;2022-07-05T03:08:00;17.60;99.90
3226;DHT22;1625;49.884;8.666;2022-07-05T03:10:26;17.60;99.90
3226;DHT22;1625;49.884;8.666;2022-07-05T03:12:52;17.50;99.90
3226;DHT22;1625;49.884;8.666;2022-07-05T03:15:17;17.50;99.90
3226;DHT22;1625;49.884;8.666;2022-07-05T03:17:43;17.40;99.90
3226;DHT22;1625;49.884;8.666;2022-07-05T03:20:09;17.40;99.90
3226;DHT22;1625;49.884;8.666;2022-07-05T03:22:34;17.30;99.90
3226;DHT22;1625;49.884;8.666;2022-07-05T03:25:00;17.30;99.90
3226;DHT22;1625;49.884;8.666;2022-07-05T03:27:26;17.20;99.90
3226;DHT22;1625;49.884;8.666;2022-07-05T03:29:51;17.20;99.90
3226;DHT22;1625;49.884;8.666;2022-07-05T03:32:17;17.20;99.90
3226;DHT22;1625;49.884;8.666;2022-07-05T03:34:42;17.10;99.90
3226;DHT22;1625;49.884;8.666;2022-07-05T03:37:08;17.10;99.90
3226;DHT22;1625;49.884;8.666;2022-07-05T03:39:34;17.10;99.90
3226;DHT22;1625;49.884;8.666;2022-07-05T03:41:59;17.20;99.90
3226;DHT22;1625;49.884;8.666;2022-07-05T03:44:25;17.20;99.90
3226;DHT22;1625;49.884;8.666;2022-07-05T03:46:51;17.20;99.90
3226;DHT22;1625;49.884;8.666;2022-07-05T03:49:17;17.10;99.90
3226;DHT22;1625;49.884;8.666;2022-07-05T03:51:42;17.20;99.90
3226;DHT22;1625;49.884;8.666;2022-07-05T03:54:08;17.20;99.90
3226;DHT22;1625;49.884;8.666;2022-07-05T03:56:33;17.20;99.90
3226;DHT22;1625;49.884;8.666;2022-07-05T03:59:05;17.20;99.90
3226;DHT22;1625;49.884;8.666;2022-07-05T04:01:39;17.30;99.90
3226;DHT22;1625;49.884;8.666;2022-07-05T04:04:16;17.20;99.90
3226;DHT22;1625;49.884;8.666;2022-07-05T04:06:45;17.20;99.90
3226;DHT22;1625;49.884;8.666;2022-07-05T04:09:10;17.20;99.90
3226;DHT22;1625;49.884;8.666;2022-07-05T04:11:36;17.30;99.90
3226;DHT22;1625;49.884;8.666;2022-07-05T04:14:05;17.20;99.90
3226;DHT22;1625;49.884;8.666;2022-07-05T04:16:48;17.10;99.90
3226;DHT22;1625;49.884;8.666;2022-07-05T04:19:28;17.20;99.90
3226;DHT22;1625;49.884;8.666;2022-07-05T04:21:56;17.10;99.90
3226;DHT22;1625;49.884;8.666;2022-07-05T04:24:22;17.10;99.90
3226;DHT22;1625;49.884;8.666;2022-07-05T04:26:48;17.20;99.90
3226;DHT22;1625;49.884;8.666;2022-07-05T04:29:13;17.00;99.90
3226;DHT22;1625;49.884;8.666;2022-07-05T04:31:39;17.10;99.90
3226;DHT22;1625;49.884;8.666;2022-07-05T04:34:05;17.10;99.90
3226;DHT22;1625;49.884;8.666;2022-07-05T04:36:30;17.10;99.90
3226;DHT22;1625;49.884;8.666;2022-07-05T04:38:56;17.20;99.90
3226;DHT22;1625;49.884;8.666;2022-07-05T04:43:48;17.20;99.90
3226;DHT22;1625;49.884;8.666;2022-07-05T04:46:13;17.30;99.90
3226;DHT22;1625;49.884;8.666;2022-07-05T04:48:39;17.40;99.90
3226;DHT22;1625;49.884;8.666;2022-07-05T04:51:05;17.40;99.90
3226;DHT22;1625;49.884;8.666;2022-07-05T04:53:42;17.40;99.90
3226;DHT22;1625;49.884;8.666;2022-07-05T04:56:38;17.40;99.90
3226;DHT22;1625;49.884;8.666;2022-07-05T04:59:12;17.50;99.90
3226;DHT22;1625;49.884;8.666;2022-07-05T05:01:48;17.50;99.90
3226;DHT22;1625;49.884;8.666;2022-07-05T05:04:17;17.60;99.90
3226;DHT22;1625;49.884;8.666;2022-07-05T05:06:43;17.60;99.90
3226;DHT22;1625;49.884;8.666;2022-07-05T05:09:08;17.60;99.90
3226;DHT22;1625;49.884;8.666;2022-07-05T05:11:34;17.70;99.90
3226;DHT22;1625;49.884;8.666;2022-07-05T05:13:59;17.80;99.90
3226;DHT22;1625;49.884;8.666;2022-07-05T05:16:25;17.80;99.90
3226;DHT22;1625;49.884;8.666;2022-07-05T05:18:50;17.90;99.90
3226;DHT22;1625;49.884;8.666;2022-07-05T05:21:16;17.90;99.90
3226;DHT22;1625;49.884;8.666;2022-07-05T05:23:41;18.00;99.90
3226;DHT22;1625;49.884;8.666;2022-07-05T05:26:07;18.00;99.90
3226;DHT22;1625;49.884;8.666;2022-07-05T05:28:32;18.10;99.90
3226;DHT22;1625;49.884;8.666;2022-07-05T05:30:59;18.10;99.90
3226;DHT22;1625;49.884;8.666;2022-07-05T05:33:24;18.10;99.90
3226;DHT22;1625;49.884;8.666;2022-07-05T05:35:50;18.20;99.90
3226;DHT22;1625;49.884;8.666;2022-07-05T05:38:15;18.30;99.90
3226;DHT22;1625;49.884;8.666;2022-07-05T05:40:41;18.40;99.90
3226;DHT22;1625;49.884;8.666;2022-07-05T05:43:14;18.50;99.90
3226;DHT22;1625;49.884;8.666;2022-07-05T05:45:40;18.50;99.90
3226;DHT22;1625;49.884;8.666;2022-07-05T05:48:09;18.50;99.90
3226;DHT22;1625;49.884;8.666;2022-07-05T05:50:36;18.50;99.90
3226;DHT22;1625;49.884;8.666;2022-07-05T05:53:05;18.60;99.90
3226;DHT22;1625;49.884;8.666;2022-07-05T05:55:34;18.70;99.90
3226;DHT22;1625;49.884;8.666;2022-07-05T05:58:24;18.70;99.90
3226;DHT22;1625;49.884;8.666;2022-07-05T06:00:50;18.70;99.90
3226;DHT22;1625;49.884;8.666;2022-07-05T06:03:24;18.80;99.90
3226;DHT22;1625;49.884;8.666;2022-07-05T06:05:58;18.80;99.90
3226;DHT22;1625;49.884;8.666;2022-07-05T06:08:27;18.90;99.90
3226;DHT22;1625;49.884;8.666;2022-07-05T06:10:58;18.90;99.90
3226;DHT22;1625;49.884;8.666;2022-07-05T06:13:23;18.90;99.90
3226;DHT22;1625;49.884;8.666;2022-07-05T06:15:49;18.90;99.90
3226;DHT22;1625;49.884;8.666;2022-07-05T06:18:18;19.00;99.90
3226;DHT22;1625;49.884;8.666;2022-07-05T06:20:44;19.00;99.90
3226;DHT22;1625;49.884;8.666;2022-07-05T06:23:09;19.10;99.90
3226;DHT22;1625;49.884;8.666;2022-07-05T06:25:36;19.10;99.90
3226;DHT22;1625;49.884;8.666;2022-07-05T06:28:06;19.10;99.90
3226;DHT22;1625;49.884;8.666;2022-07-05T06:30:35;19.20;99.90
3226;DHT22;1625;49.884;8.666;2022-07-05T06:33:00;19.20;99.90
3226;DHT22;1625;49.884;8.666;2022-07-05T06:35:26;19.20;99.90
3226;DHT22;1625;49.884;8.666;2022-07-05T06:38:05;19.30;99.90
3226;DHT22;1625;49.884;8.666;2022-07-05T06:43:05;19.40;99.90
3226;DHT22;1625;49.884;8.666;2022-07-05T06:45:31;19.50;99.90
3226;DHT22;1625;49.884;8.666;2022-07-05T06:48:02;19.50;99.90
3226;DHT22;1625;49.884;8.666;2022-07-05T06:50:34;19.60;99.90
3226;DHT22;1625;49.884;8.666;2022-07-05T06:53:06;19.70;99.90
3226;DHT22;1625;49.884;8.666;2022-07-05T06:55:32;19.70;99.90
3226;DHT22;1625;49.884;8.666;2022-07-05T06:57:59;19.80;99.90
3226;DHT22;1625;49.884;8.666;2022-07-05T07:00:26;19.80;99.90
3226;DHT22;1625;49.884;8.666;2022-07-05T07:02:52;19.90;99.90
3226;DHT22;1625;49.884;8.666;2022-07-05T07:05:18;19.90;99.90
3226;DHT22;1625;49.884;8.666;2022-07-05T07:07:43;20.00;99.90
3226;DHT22;1625;49.884;8.666;2022-07-05T07:10:27;20.00;99.90
3226;DHT22;1625;49.884;8.666;2022-07-05T07:12:58;20.10;99.90
3226;DHT22;1625;49.884;8.666;2022-07-05T07:15:25;20.20;99.90
3226;DHT22;1625;49.884;8.666;2022-07-05T07:17:51;20.30;99.90
3226;DHT22;1625;49.884;8.666;2022-07-05T07:20:17;20.40;99.90
3226;DHT22;1625;49.884;8.666;2022-07-05T07:22:42;20.40;99.90
3226;DHT22;1625;49.884;8.666;2022-07-05T07:25:11;20.50;99.90
3226;DHT22;1625;49.884;8.666;2022-07-05T07:27:47;20.50;99.90
3226;DHT22;1625;49.884;8.666;2022-07-05T07:30:14;20.60;99.90
3226;DHT22;1625;49.884;8.666;2022-07-05T07:32:41;20.60;99.90
3226;DHT22;1625;49.884;8.666;2022-07-05T07:35:07;20.60;99.90
3226;DHT22;1625;49.884;8.666;2022-07-05T07:37:33;20.70;99.90
3226;DHT22;1625;49.884;8.666;2022-07-05T07:39:59;20.70;99.90
3226;DHT22;1625;49.884;8.666;2022-07-05T07:42:26;20.80;99.90
3226;DHT22;1625;49.884;8.666;2022-07-05T07:44:52;20.90;99.90
3226;DHT22;1625;49.884;8.666;2022-07-05T07:47:18;21.00;99.90
3226;DHT22;1625;49.884;8.666;2022-07-05T07:52:10;21.10;99.90
3226;DHT22;1625;49.884;8.666;2022-07-05T07:54:35;21.60;99.90
3226;DHT22;1625;49.884;8.666;2022-07-05T07:57:01;21.10;99.90
3226;DHT22;1625;49.884;8.666;2022-07-05T07:59:31;21.20;99.90
3226;DHT22;1625;49.884;8.666;2022-07-05T08:01:56;21.20;99.90
3226;DHT22;1625;49.884;8.666;2022-07-05T08:04:22;21.20;99.90
3226;DHT22;1625;49.884;8.666;2022-07-05T08:06:48;21.30;99.90
3226;DHT22;1625;49.884;8.666;2022-07-05T08:09:13;21.40;99.90
3226;DHT22;1625;49.884;8.666;2022-07-05T08:11:39;21.50;99.90
3226;DHT22;1625;49.884;8.666;2022-07-05T08:14:05;21.60;99.90
3226;DHT22;1625;49.884;8.666;2022-07-05T08:16:31;21.70;99.90
3226;DHT22;1625;49.884;8.666;2022-07-05T08:18:59;21.80;99.90
3226;DHT22;1625;49.884;8.666;2022-07-05T08:21:43;21.80;99.90
3226;DHT22;1625;49.884;8.666;2022-07-05T08:24:11;21.80;99.90
3226;DHT22;1625;49.884;8.666;2022-07-05T08:26:38;21.90;99.90
3226;DHT22;1625;49.884;8.666;2022-07-05T08:29:06;21.90;99.90
3226;DHT22;1625;49.884;8.666;2022-07-05T08:31:38;22.00;99.90
3226;DHT22;1625;49.884;8.666;2022-07-05T08:34:07;22.00;99.90
3226;DHT22;1625;49.884;8.666;2022-07-05T08:36:33;21.90;99.90
3226;DHT22;1625;49.884;8.666;2022-07-05T08:38:58;22.00;99.90
3226;DHT22;1625;49.884;8.666;2022-07-05T08:41:24;22.10;99.90
3226;DHT22;1625;49.884;8.666;2022-07-05T08:43:50;22.10;99.90
3226;DHT22;1625;49.884;8.666;2022-07-05T08:46:20;22.20;99.90
3226;DHT22;1625;49.884;8.666;2022-07-05T08:48:50;22.20;99.70
3226;DHT22;1625;49.884;8.666;2022-07-05T08:51:20;22.30;99.90
3226;DHT22;1625;49.884;8.666;2022-07-05T08:53:47;22.30;99.90
3226;DHT22;1625;49.884;8.666;2022-07-05T08:56:14;22.40;98.30
3226;DHT22;1625;49.884;8.666;2022-07-05T08:58:40;22.40;98.70
3226;DHT22;1625;49.884;8.666;2022-07-05T09:01:07;22.50;99.10
3226;DHT22;1625;49.884;8.666;2022-07-05T09:03:55;22.50;99.20
3226;DHT22;1625;49.884;8.666;2022-07-05T09:06:25;22.60;98.60
3226;DHT22;1625;49.884;8.666;2022-07-05T09:08:58;22.70;98.30
3226;DHT22;1625;49.884;8.666;2022-07-05T09:11:31;22.80;97.40
3226;DHT22;1625;49.884;8.666;2022-07-05T09:13:59;22.90;96.90
3226;DHT22;1625;49.884;8.666;2022-07-05T09:16:27;22.90;96.20
3226;DHT22;1625;49.884;8.666;2022-07-05T09:18:53;22.90;95.70
3226;DHT22;1625;49.884;8.666;2022-07-05T09:21:24;22.90;95.70
3226;DHT22;1625;49.884;8.666;2022-07-05T09:24:03;22.90;95.20
3226;DHT22;1625;49.884;8.666;2022-07-05T09:26:43;23.00;95.90
3226;DHT22;1625;49.884;8.666;2022-07-05T09:29:17;23.10;95.10
3226;DHT22;1625;49.884;8.666;2022-07-05T09:31:48;23.10;95.00
3226;DHT22;1625;49.884;8.666;2022-07-05T09:34:21;23.20;95.10
3226;DHT22;1625;49.884;8.666;2022-07-05T09:37:00;23.30;95.00
3226;DHT22;1625;49.884;8.666;2022-07-05T09:44:48;23.60;94.60
3226;DHT22;1625;49.884;8.666;2022-07-05T09:47:15;23.70;93.30
3226;DHT22;1625;49.884;8.666;2022-07-05T09:49:44;23.60;93.70
3226;DHT22;1625;49.884;8.666;2022-07-05T09:52:29;23.40;93.60
3226;DHT22;1625;49.884;8.666;2022-07-05T09:55:15;23.40;94.20
3226;DHT22;1625;49.884;8.666;2022-07-05T09:57:49;23.40;94.10
3226;DHT22;1625;49.884;8.666;2022-07-05T10:00:21;23.40;94.00
3226;DHT22;1625;49.884;8.666;2022-07-05T10:02:54;23.50;93.00
3226;DHT22;1625;49.884;8.666;2022-07-05T10:05:26;23.60;93.30
3226;DHT22;1625;49.884;8.666;2022-07-05T10:07:59;23.70;93.20
3226;DHT22;1625;49.884;8.666;2022-07-05T10:10:30;23.70;92.40
3226;DHT22;1625;49.884;8.666;2022-07-05T10:13:01;23.70;92.30
3226;DHT22;1625;49.884;8.666;2022-07-05T10:15:35;23.70;91.80
3226;DHT22;1625;49.884;8.666;2022-07-05T10:18:20;23.70;91.30
3226;DHT22;1625;49.884;8.666;2022-07-05T10:20:52;23.80;91.30
3226;DHT22;1625;49.884;8.666;2022-07-05T10:23:19;23.90;90.50
3226;DHT22;1625;49.884;8.666;2022-07-05T10:25:50;23.90;88.30
3226;DHT22;1625;49.884;8.666;2022-07-05T10:28:31;24.00;89.00
3226;DHT22;1625;49.884;8.666;2022-07-05T10:31:01;24.00;90.70
3226;DHT22;1625;49.884;8.666;2022-07-05T10:33:31;24.00;90.10
3226;DHT22;1625;49.884;8.666;2022-07-05T10:35:58;24.10;90.30
3226;DHT22;1625;49.884;8.666;2022-07-05T10:38:24;24.20;90.00
3226;DHT22;1625;49.884;8.666;2022-07-05T10:40:54;24.30;89.40
3226;DHT22;1625;49.884;8.666;2022-07-05T10:43:24;24.40;89.10
3226;DHT22;1625;49.884;8.666;2022-07-05T10:45:51;24.50;88.10
3226;DHT22;1625;49.884;8.666;2022-07-05T10:48:20;24.70;88.70
3226;DHT22;1625;49.884;8.666;2022-07-05T10:50:56;24.80;87.90
3226;DHT22;1625;49.884;8.666;2022-07-05T10:53:23;24.90;88.20
3226;DHT22;1625;49.884;8.666;2022-07-05T10:58:24;24.90;88.80
3226;DHT22;1625;49.884;8.666;2022-07-05T11:03:43;24.70;90.20
3226;DHT22;1625;49.884;8.666;2022-07-05T11:06:19;24.50;89.60
3226;DHT22;1625;49.884;8.666;2022-07-05T11:11:27;24.60;89.80
3226;DHT22;1625;49.884;8.666;2022-07-05T11:13:53;24.60;87.70
3226;DHT22;1625;49.884;8.666;2022-07-05T11:16:40;24.70;88.30
3226;DHT22;1625;49.884;8.666;2022-07-05T11:21:32;25.00;83.80
3226;DHT22;1625;49.884;8.666;2022-07-05T11:24:33;25.10;85.60
3226;DHT22;1625;49.884;8.666;2022-07-05T11:27:01;25.10;85.70
3226;DHT22;1625;49.884;8.666;2022-07-05T11:34:36;25.00;82.60
3226;DHT22;1625;49.884;8.666;2022-07-05T11:45:06;25.30;80.50
3226;DHT22;1625;49.884;8.666;2022-07-05T11:47:33;25.20;79.20
3226;DHT22;1625;49.884;8.666;2022-07-05T11:49:59;25.00;78.90
3226;DHT22;1625;49.884;8.666;2022-07-05T11:52:31;24.60;78.80
3226;DHT22;1625;49.884;8.666;2022-07-05T11:55:00;25.00;78.60
3226;DHT22;1625;49.884;8.666;2022-07-05T11:57:26;25.00;79.30
3226;DHT22;1625;49.884;8.666;2022-07-05T11:59:52;25.00;77.70
3226;DHT22;1625;49.884;8.666;2022-07-05T12:02:18;25.00;78.40
3226;DHT22;1625;49.884;8.666;2022-07-05T12:04:51;25.20;79.20
3226;DHT22;1625;49.884;8.666;2022-07-05T12:07:30;25.40;78.40
3226;DHT22;1625;49.884;8.666;2022-07-05T12:09:56;25.40;77.90
3226;DHT22;1625;49.884;8.666;2022-07-05T12:12:42;25.40;74.60
3226;DHT22;1625;49.884;8.666;2022-07-05T12:17:37;25.20;73.10
3226;DHT22;1625;49.884;8.666;2022-07-05T12:20:07;25.20;72.40
3226;DHT22;1625;49.884;8.666;2022-07-05T12:22:37;25.30;74.20
3226;DHT22;1625;49.884;8.666;2022-07-05T12:25:05;25.50;74.60
3226;DHT22;1625;49.884;8.666;2022-07-05T12:27:33;25.80;71.90
3226;DHT22;1625;49.884;8.666;2022-07-05T12:29:59;26.00;75.60
3226;DHT22;1625;49.884;8.666;2022-07-05T12:32:27;26.20;74.00
3226;DHT22;1625;49.884;8.666;2022-07-05T12:34:54;26.30;70.80
3226;DHT22;1625;49.884;8.666;2022-07-05T12:37:23;26.40;73.50
3226;DHT22;1625;49.884;8.666;2022-07-05T12:39:50;26.50;72.60
3226;DHT22;1625;49.884;8.666;2022-07-05T12:42:35;26.40;70.00
3226;DHT22;1625;49.884;8.666;2022-07-05T12:45:14;26.50;71.40
3226;DHT22;1625;49.884;8.666;2022-07-05T12:47:51;26.60;70.40
3226;DHT22;1625;49.884;8.666;2022-07-05T12:50:19;26.70;70.00
3226;DHT22;1625;49.884;8.666;2022-07-05T12:52:57;26.80;71.60
3226;DHT22;1625;49.884;8.666;2022-07-05T12:55:24;26.70;71.90
3226;DHT22;1625;49.884;8.666;2022-07-05T12:58:08;26.70;72.30
3226;DHT22;1625;49.884;8.666;2022-07-05T13:00:34;26.90;72.10
3226;DHT22;1625;49.884;8.666;2022-07-05T13:02:59;27.00;70.10
3226;DHT22;1625;49.884;8.666;2022-07-05T13:05:25;27.10;70.40
3226;DHT22;1625;49.884;8.666;2022-07-05T13:07:52;27.40;69.80
3226;DHT22;1625;49.884;8.666;2022-07-05T13:10:18;27.60;71.10
3226;DHT22;1625;49.884;8.666;2022-07-05T13:12:45;27.80;67.10
3226;DHT22;1625;49.884;8.666;2022-07-05T13:15:11;27.90;66.40
3226;DHT22;1625;49.884;8.666;2022-07-05T13:17:37;28.10;66.30
3226;DHT22;1625;49.884;8.666;2022-07-05T13:20:03;28.00;68.40
3226;DHT22;1625;49.884;8.666;2022-07-05T13:22:29;27.80;67.00
3226;DHT22;1625;49.884;8.666;2022-07-05T13:24:54;27.70;67.70
3226;DHT22;1625;49.884;8.666;2022-07-05T13:27:20;27.60;66.40
3226;DHT22;1625;49.884;8.666;2022-07-05T13:29:46;27.40;66.80
3226;DHT22;1625;49.884;8.666;2022-07-05T13:32:14;27.10;67.60
3226;DHT22;1625;49.884;8.666;2022-07-05T13:34:42;26.90;68.30
3226;DHT22;1625;49.884;8.666;2022-07-05T13:37:07;26.80;69.50
3226;DHT22;1625;49.884;8.666;2022-07-05T13:43:02;26.40;68.70
3226;DHT22;1625;49.884;8.666;2022-07-05T13:45:28;26.80;66.20
3226;DHT22;1625;49.884;8.666;2022-07-05T13:47:54;27.00;66.10
3226;DHT22;1625;49.884;8.666;2022-07-05T13:50:19;27.40;67.00
3226;DHT22;1625;49.884;8.666;2022-07-05T13:52:58;27.80;64.70
3226;DHT22;1625;49.884;8.666;2022-07-05T13:55:24;28.10;64.20
3226;DHT22;1625;49.884;8.666;2022-07-05T13:57:49;28.20;64.00
3226;DHT22;1625;49.884;8.666;2022-07-05T14:00:18;28.60;63.70
3226;DHT22;1625;49.884;8.666;2022-07-05T14:03:11;29.00;65.00
3226;DHT22;1625;49.884;8.666;2022-07-05T14:05:36;31.30;62.00
3226;DHT22;1625;49.884;8.666;2022-07-05T14:08:03;34.50;58.20
3226;DHT22;1625;49.884;8.666;2022-07-05T14:10:30;36.70;53.50
3226;DHT22;1625;49.884;8.666;2022-07-05T14:13:03;39.20;50.60
3226;DHT22;1625;49.884;8.666;2022-07-05T14:15:28;39.30;47.30
3226;DHT22;1625;49.884;8.666;2022-07-05T14:17:58;39.10;45.50
3226;DHT22;1625;49.884;8.666;2022-07-05T14:20:28;35.70;46.00
3226;DHT22;1625;49.884;8.666;2022-07-05T14:22:53;34.30;47.90
3226;DHT22;1625;49.884;8.666;2022-07-05T14:25:19;33.50;48.90
3226;DHT22;1625;49.884;8.666;2022-07-05T14:27:44;32.50;49.50
3226;DHT22;1625;49.884;8.666;2022-07-05T14:30:10;31.70;52.50
3226;DHT22;1625;49.884;8.666;2022-07-05T14:32:37;31.20;53.30
3226;DHT22;1625;49.884;8.666;2022-07-05T14:35:04;31.60;50.10
3226;DHT22;1625;49.884;8.666;2022-07-05T14:37:32;31.90;50.50
3226;DHT22;1625;49.884;8.666;2022-07-05T14:39:57;39.80;48.00
3226;DHT22;1625;49.884;8.666;2022-07-05T14:42:23;42.10;43.60
3226;DHT22;1625;49.884;8.666;2022-07-05T14:44:48;44.70;40.00
3226;DHT22;1625;49.884;8.666;2022-07-05T14:47:14;46.00;39.10
3226;DHT22;1625;49.884;8.666;2022-07-05T14:49:39;47.60;38.20
3226;DHT22;1625;49.884;8.666;2022-07-05T14:52:05;49.30;35.60
3226;DHT22;1625;49.884;8.666;2022-07-05T14:54:31;50.10;34.20
3226;DHT22;1625;49.884;8.666;2022-07-05T14:56:56;51.00;33.80
3226;DHT22;1625;49.884;8.666;2022-07-05T14:59:22;52.40;32.60
3226;DHT22;1625;49.884;8.666;2022-07-05T15:01:47;53.30;32.20
3226;DHT22;1625;49.884;8.666;2022-07-05T15:04:13;54.80;31.80
3226;DHT22;1625;49.884;8.666;2022-07-05T15:06:38;54.20;30.10
3226;DHT22;1625;49.884;8.666;2022-07-05T15:09:06;54.10;30.00
3226;DHT22;1625;49.884;8.666;2022-07-05T15:11:31;54.10;29.80
3226;DHT22;1625;49.884;8.666;2022-07-05T15:13:57;55.50;29.70
3226;DHT22;1625;49.884;8.666;2022-07-05T15:16:22;56.10;29.90
3226;DHT22;1625;49.884;8.666;2022-07-05T15:18:48;53.80;29.50
3226;DHT22;1625;49.884;8.666;2022-07-05T15:21:13;49.20;29.30
3226;DHT22;1625;49.884;8.666;2022-07-05T15:23:39;44.20;30.10
3226;DHT22;1625;49.884;8.666;2022-07-05T15:26:05;42.50;32.90
3226;DHT22;1625;49.884;8.666;2022-07-05T15:28:30;42.40;32.60
3226;DHT22;1625;49.884;8.666;2022-07-05T15:30:56;39.70;32.60
3226;DHT22;1625;49.884;8.666;2022-07-05T15:33:22;44.80;33.80
3226;DHT22;1625;49.884;8.666;2022-07-05T15:35:53;48.70;31.40
3226;DHT22;1625;49.884;8.666;2022-07-05T15:38:23;51.60;30.80
3226;DHT22;1625;49.884;8.666;2022-07-05T15:40:48;52.30;30.00
3226;DHT22;1625;49.884;8.666;2022-07-05T15:43:14;53.60;30.00
3226;DHT22;1625;49.884;8.666;2022-07-05T15:45:39;54.30;29.70
3226;DHT22;1625;49.884;8.666;2022-07-05T15:48:05;54.30;30.00
3226;DHT22;1625;49.884;8.666;2022-07-05T15:50:31;54.20;29.80
3226;DHT22;1625;49.884;8.666;2022-07-05T15:52:56;52.70;29.30
3226;DHT22;1625;49.884;8.666;2022-07-05T15:55:22;48.40;29.40
3226;DHT22;1625;49.884;8.666;2022-07-05T15:57:48;44.40;30.70
3226;DHT22;1625;49.884;8.666;2022-07-05T16:00:14;41.60;32.00
3226;DHT22;1625;49.884;8.666;2022-07-05T16:02:40;39.10;33.80
3226;DHT22;1625;49.884;8.666;2022-07-05T16:05:06;36.90;35.90
3226;DHT22;1625;49.884;8.666;2022-07-05T16:07:31;35.80;37.20
3226;DHT22;1625;49.884;8.666;2022-07-05T16:09:57;34.70;37.50
3226;DHT22;1625;49.884;8.666;2022-07-05T16:12:22;34.20;38.70
3226;DHT22;1625;49.884;8.666;2022-07-05T16:14:48;33.30;40.00
3226;DHT22;1625;49.884;8.666;2022-07-05T16:17:13;32.60;40.70
3226;DHT22;1625;49.884;8.666;2022-07-05T16:19:39;32.40;41.40
3226;DHT22;1625;49.884;8.666;2022-07-05T16:22:04;32.10;42.20
3226;DHT22;1625;49.884;8.666;2022-07-05T16:24:30;32.00;42.70
3226;DHT22;1625;49.884;8.666;2022-07-05T16:26:55;32.00;42.90
3226;DHT22;1625;49.884;8.666;2022-07-05T16:29:21;32.10;43.60
3226;DHT22;1625;49.884;8.666;2022-07-05T16:31:46;31.90;42.20
3226;DHT22;1625;49.884;8.666;2022-07-05T16:34:14;31.90;42.80
3226;DHT22;1625;49.884;8.666;2022-07-05T16:36:39;31.90;42.80
3226;DHT22;1625;49.884;8.666;2022-07-05T16:39:05;31.80;43.20
3226;DHT22;1625;49.884;8.666;2022-07-05T16:41:30;31.60;43.60
3226;DHT22;1625;49.884;8.666;2022-07-05T16:43:56;31.20;44.40
3226;DHT22;1625;49.884;8.666;2022-07-05T16:46:22;30.60;45.40
3226;DHT22;1625;49.884;8.666;2022-07-05T16:48:49;30.20;46.20
3226;DHT22;1625;49.884;8.666;2022-07-05T16:51:17;30.10;47.70
3226;DHT22;1625;49.884;8.666;2022-07-05T16:53:44;29.90;47.20